EGGW - Luton Airport
Distance from station: E 5mi, 14km
Updated: 12/13/2017 4:20am
Light rain, Overcast
Light rain, Overcast
 Wind from SSW
Wind: SSW 10 mph , 17 km/h
Temperature: 41°F , 5°C
Wind Chill: 35°F , 2°C
Dew Point: 41°F , 5°C
Humidity: 100%
Barometer: 29.35 inHg , 994 hPa
Summary: Light Rain
Clouds: Overcast
Visibility: 5 miles , 8 km
Cloud details: Overcast 400 ft
2017/12/13 12:20 EGGW 131220Z 20009KT 8000 -RA OVC004TCU 05/05 Q0994